sensor_id;sensor_type;location;lat;lon;timestamp;temperature;humidity
5176;DHT22;2607;50.934;6.934;2023-11-21T00:00:11;9.50;99.90
5176;DHT22;2607;50.934;6.934;2023-11-21T00:02:37;9.50;99.90
5176;DHT22;2607;50.934;6.934;2023-11-21T00:05:06;9.50;99.90
5176;DHT22;2607;50.934;6.934;2023-11-21T00:07:33;9.50;99.90
5176;DHT22;2607;50.934;6.934;2023-11-21T00:09:59;9.50;99.90
5176;DHT22;2607;50.934;6.934;2023-11-21T00:12:24;9.50;99.90
5176;DHT22;2607;50.934;6.934;2023-11-21T00:14:50;9.50;99.90
5176;DHT22;2607;50.934;6.934;2023-11-21T00:17:17;9.60;99.90
5176;DHT22;2607;50.934;6.934;2023-11-21T00:19:42;9.60;99.90
5176;DHT22;2607;50.934;6.934;2023-11-21T00:22:08;9.60;99.90
5176;DHT22;2607;50.934;6.934;2023-11-21T00:24:34;9.60;99.90
5176;DHT22;2607;50.934;6.934;2023-11-21T00:27:00;9.60;99.90
5176;DHT22;2607;50.934;6.934;2023-11-21T00:29:25;9.60;99.90
5176;DHT22;2607;50.934;6.934;2023-11-21T00:31:52;9.60;99.90
5176;DHT22;2607;50.934;6.934;2023-11-21T00:34:18;9.60;99.90
5176;DHT22;2607;50.934;6.934;2023-11-21T00:36:43;9.60;99.90
5176;DHT22;2607;50.934;6.934;2023-11-21T00:39:09;9.60;99.90
5176;DHT22;2607;50.934;6.934;2023-11-21T00:41:34;9.60;99.90
5176;DHT22;2607;50.934;6.934;2023-11-21T00:44:01;9.60;99.90
5176;DHT22;2607;50.934;6.934;2023-11-21T00:46:27;9.60;99.90
5176;DHT22;2607;50.934;6.934;2023-11-21T00:48:54;9.60;99.90
5176;DHT22;2607;50.934;6.934;2023-11-21T00:51:20;9.60;99.90
5176;DHT22;2607;50.934;6.934;2023-11-21T00:53:47;9.60;99.90
5176;DHT22;2607;50.934;6.934;2023-11-21T00:56:13;9.60;99.90
5176;DHT22;2607;50.934;6.934;2023-11-21T00:58:39;9.60;99.90
5176;DHT22;2607;50.934;6.934;2023-11-21T01:01:04;9.60;99.90
5176;DHT22;2607;50.934;6.934;2023-11-21T01:03:30;9.50;99.90
5176;DHT22;2607;50.934;6.934;2023-11-21T01:05:56;9.50;99.90
5176;DHT22;2607;50.934;6.934;2023-11-21T01:08:21;9.50;99.90
5176;DHT22;2607;50.934;6.934;2023-11-21T01:10:47;9.40;99.90
5176;DHT22;2607;50.934;6.934;2023-11-21T01:13:13;9.40;99.90
5176;DHT22;2607;50.934;6.934;2023-11-21T01:15:40;9.40;99.90
5176;DHT22;2607;50.934;6.934;2023-11-21T01:18:07;9.30;99.90
5176;DHT22;2607;50.934;6.934;2023-11-21T01:20:34;9.30;99.90
5176;DHT22;2607;50.934;6.934;2023-11-21T01:22:59;9.30;99.90
5176;DHT22;2607;50.934;6.934;2023-11-21T01:25:25;9.20;99.90
5176;DHT22;2607;50.934;6.934;2023-11-21T01:27:51;9.20;99.90
5176;DHT22;2607;50.934;6.934;2023-11-21T01:30:17;9.30;99.90
5176;DHT22;2607;50.934;6.934;2023-11-21T01:32:42;9.30;99.90
5176;DHT22;2607;50.934;6.934;2023-11-21T01:35:09;9.30;99.90
5176;DHT22;2607;50.934;6.934;2023-11-21T01:37:36;9.30;99.90
5176;DHT22;2607;50.934;6.934;2023-11-21T01:40:02;9.30;99.90
5176;DHT22;2607;50.934;6.934;2023-11-21T01:42:30;9.30;99.90
5176;DHT22;2607;50.934;6.934;2023-11-21T01:44:56;9.30;99.90
5176;DHT22;2607;50.934;6.934;2023-11-21T01:47:21;9.30;99.90
5176;DHT22;2607;50.934;6.934;2023-11-21T01:49:47;9.30;99.90
5176;DHT22;2607;50.934;6.934;2023-11-21T01:52:13;9.30;99.90
5176;DHT22;2607;50.934;6.934;2023-11-21T01:54:41;9.30;99.90
5176;DHT22;2607;50.934;6.934;2023-11-21T01:57:07;9.30;99.90
5176;DHT22;2607;50.934;6.934;2023-11-21T01:59:37;9.30;99.90
5176;DHT22;2607;50.934;6.934;2023-11-21T02:02:04;9.30;99.90
5176;DHT22;2607;50.934;6.934;2023-11-21T02:04:32;9.30;99.90
5176;DHT22;2607;50.934;6.934;2023-11-21T02:06:57;9.20;99.90
5176;DHT22;2607;50.934;6.934;2023-11-21T02:09:27;9.20;99.90
5176;DHT22;2607;50.934;6.934;2023-11-21T02:11:54;9.20;99.90
5176;DHT22;2607;50.934;6.934;2023-11-21T02:14:20;9.10;99.90
5176;DHT22;2607;50.934;6.934;2023-11-21T02:16:51;9.10;99.90
5176;DHT22;2607;50.934;6.934;2023-11-21T02:19:21;9.10;99.90
5176;DHT22;2607;50.934;6.934;2023-11-21T02:21:56;9.10;99.90
5176;DHT22;2607;50.934;6.934;2023-11-21T02:24:26;9.10;99.90
5176;DHT22;2607;50.934;6.934;2023-11-21T02:26:52;9.10;99.90
5176;DHT22;2607;50.934;6.934;2023-11-21T02:29:19;9.10;99.90
5176;DHT22;2607;50.934;6.934;2023-11-21T02:31:47;9.10;99.90
5176;DHT22;2607;50.934;6.934;2023-11-21T02:34:16;9.10;99.90
5176;DHT22;2607;50.934;6.934;2023-11-21T02:36:44;9.10;99.90
5176;DHT22;2607;50.934;6.934;2023-11-21T02:39:10;9.10;99.90
5176;DHT22;2607;50.934;6.934;2023-11-21T02:41:39;9.10;99.90
5176;DHT22;2607;50.934;6.934;2023-11-21T02:44:06;9.10;99.90
5176;DHT22;2607;50.934;6.934;2023-11-21T02:46:33;9.20;99.90
5176;DHT22;2607;50.934;6.934;2023-11-21T02:49:05;9.10;99.90
5176;DHT22;2607;50.934;6.934;2023-11-21T02:51:36;9.20;99.90
5176;DHT22;2607;50.934;6.934;2023-11-21T02:54:02;9.20;99.90
5176;DHT22;2607;50.934;6.934;2023-11-21T02:56:30;9.20;99.90
5176;DHT22;2607;50.934;6.934;2023-11-21T02:58:56;9.20;99.90
5176;DHT22;2607;50.934;6.934;2023-11-21T03:01:22;9.20;99.90
5176;DHT22;2607;50.934;6.934;2023-11-21T03:03:49;9.20;99.90
5176;DHT22;2607;50.934;6.934;2023-11-21T03:06:19;9.30;99.90
5176;DHT22;2607;50.934;6.934;2023-11-21T03:08:45;9.20;99.90
5176;DHT22;2607;50.934;6.934;2023-11-21T03:11:11;9.20;99.90
5176;DHT22;2607;50.934;6.934;2023-11-21T03:13:41;9.20;99.90
5176;DHT22;2607;50.934;6.934;2023-11-21T03:16:10;9.20;99.90
5176;DHT22;2607;50.934;6.934;2023-11-21T03:18:36;9.20;99.90
5176;DHT22;2607;50.934;6.934;2023-11-21T03:21:03;9.20;99.90
5176;DHT22;2607;50.934;6.934;2023-11-21T03:23:28;9.20;99.90
5176;DHT22;2607;50.934;6.934;2023-11-21T03:25:54;9.20;99.90
5176;DHT22;2607;50.934;6.934;2023-11-21T03:28:19;9.20;99.90
5176;DHT22;2607;50.934;6.934;2023-11-21T03:30:45;9.20;99.90
5176;DHT22;2607;50.934;6.934;2023-11-21T03:33:10;9.20;99.90
5176;DHT22;2607;50.934;6.934;2023-11-21T03:35:36;9.20;99.90
5176;DHT22;2607;50.934;6.934;2023-11-21T03:38:02;9.20;99.90
5176;DHT22;2607;50.934;6.934;2023-11-21T03:40:27;9.20;99.90
5176;DHT22;2607;50.934;6.934;2023-11-21T03:42:53;9.10;99.90
5176;DHT22;2607;50.934;6.934;2023-11-21T03:45:18;9.10;99.90
5176;DHT22;2607;50.934;6.934;2023-11-21T03:47:44;9.10;99.90
5176;DHT22;2607;50.934;6.934;2023-11-21T03:50:09;9.10;99.90
5176;DHT22;2607;50.934;6.934;2023-11-21T03:52:35;9.00;99.90
5176;DHT22;2607;50.934;6.934;2023-11-21T03:55:01;9.10;99.90
5176;DHT22;2607;50.934;6.934;2023-11-21T03:57:27;9.00;99.90
5176;DHT22;2607;50.934;6.934;2023-11-21T03:59:53;9.00;99.90
5176;DHT22;2607;50.934;6.934;2023-11-21T04:02:19;9.10;99.90
5176;DHT22;2607;50.934;6.934;2023-11-21T04:04:44;9.00;99.90
5176;DHT22;2607;50.934;6.934;2023-11-21T04:07:10;9.00;99.90
5176;DHT22;2607;50.934;6.934;2023-11-21T04:09:36;9.00;99.90
5176;DHT22;2607;50.934;6.934;2023-11-21T04:12:02;9.00;99.90
5176;DHT22;2607;50.934;6.934;2023-11-21T04:14:28;9.00;99.90
5176;DHT22;2607;50.934;6.934;2023-11-21T04:16:53;9.00;99.90
5176;DHT22;2607;50.934;6.934;2023-11-21T04:19:19;9.10;99.90
5176;DHT22;2607;50.934;6.934;2023-11-21T04:21:45;9.10;99.90
5176;DHT22;2607;50.934;6.934;2023-11-21T04:24:11;9.10;99.90
5176;DHT22;2607;50.934;6.934;2023-11-21T04:26:37;9.10;99.90
5176;DHT22;2607;50.934;6.934;2023-11-21T04:29:03;9.10;99.90
5176;DHT22;2607;50.934;6.934;2023-11-21T04:31:30;9.00;99.90
5176;DHT22;2607;50.934;6.934;2023-11-21T04:33:55;9.00;99.90
5176;DHT22;2607;50.934;6.934;2023-11-21T04:36:21;9.00;99.90
5176;DHT22;2607;50.934;6.934;2023-11-21T04:38:46;9.00;99.90
5176;DHT22;2607;50.934;6.934;2023-11-21T04:41:12;9.10;99.90
5176;DHT22;2607;50.934;6.934;2023-11-21T04:43:38;9.00;99.90
5176;DHT22;2607;50.934;6.934;2023-11-21T04:46:04;9.00;99.90
5176;DHT22;2607;50.934;6.934;2023-11-21T04:48:30;9.00;99.90
5176;DHT22;2607;50.934;6.934;2023-11-21T04:50:56;9.00;99.90
5176;DHT22;2607;50.934;6.934;2023-11-21T04:53:21;9.00;99.90
5176;DHT22;2607;50.934;6.934;2023-11-21T04:55:47;9.00;99.90
5176;DHT22;2607;50.934;6.934;2023-11-21T04:58:14;9.00;99.90
5176;DHT22;2607;50.934;6.934;2023-11-21T05:00:39;9.00;99.90
5176;DHT22;2607;50.934;6.934;2023-11-21T05:03:06;9.00;99.90
5176;DHT22;2607;50.934;6.934;2023-11-21T05:05:32;9.00;99.90
5176;DHT22;2607;50.934;6.934;2023-11-21T05:07:59;8.90;99.90
5176;DHT22;2607;50.934;6.934;2023-11-21T05:10:25;8.90;99.90
5176;DHT22;2607;50.934;6.934;2023-11-21T05:12:50;8.90;99.90
5176;DHT22;2607;50.934;6.934;2023-11-21T05:15:16;8.90;99.90
5176;DHT22;2607;50.934;6.934;2023-11-21T05:17:46;8.90;99.90
5176;DHT22;2607;50.934;6.934;2023-11-21T05:20:14;8.90;99.90
5176;DHT22;2607;50.934;6.934;2023-11-21T05:22:43;8.90;99.90
5176;DHT22;2607;50.934;6.934;2023-11-21T05:25:08;8.90;99.90
5176;DHT22;2607;50.934;6.934;2023-11-21T05:27:35;8.90;99.90
5176;DHT22;2607;50.934;6.934;2023-11-21T05:30:04;8.90;99.90
5176;DHT22;2607;50.934;6.934;2023-11-21T05:32:40;9.00;99.90
5176;DHT22;2607;50.934;6.934;2023-11-21T05:35:08;9.00;99.90
5176;DHT22;2607;50.934;6.934;2023-11-21T05:37:37;9.00;99.90
5176;DHT22;2607;50.934;6.934;2023-11-21T05:40:06;9.00;99.90
5176;DHT22;2607;50.934;6.934;2023-11-21T05:42:33;9.00;99.90
5176;DHT22;2607;50.934;6.934;2023-11-21T05:44:59;9.00;99.90
5176;DHT22;2607;50.934;6.934;2023-11-21T05:47:24;9.00;99.90
5176;DHT22;2607;50.934;6.934;2023-11-21T05:49:51;9.00;99.90
5176;DHT22;2607;50.934;6.934;2023-11-21T05:52:17;9.00;99.90
5176;DHT22;2607;50.934;6.934;2023-11-21T05:54:43;9.00;99.90
5176;DHT22;2607;50.934;6.934;2023-11-21T05:57:09;9.00;99.90
5176;DHT22;2607;50.934;6.934;2023-11-21T05:59:34;8.90;99.90
5176;DHT22;2607;50.934;6.934;2023-11-21T06:02:00;8.90;99.90
5176;DHT22;2607;50.934;6.934;2023-11-21T06:04:25;9.00;99.90
5176;DHT22;2607;50.934;6.934;2023-11-21T06:06:52;8.90;99.90
5176;DHT22;2607;50.934;6.934;2023-11-21T06:09:18;9.00;99.90
5176;DHT22;2607;50.934;6.934;2023-11-21T06:11:44;9.00;99.90
5176;DHT22;2607;50.934;6.934;2023-11-21T06:14:09;9.00;99.90
5176;DHT22;2607;50.934;6.934;2023-11-21T06:16:36;9.00;99.90
5176;DHT22;2607;50.934;6.934;2023-11-21T06:19:02;9.00;99.90
5176;DHT22;2607;50.934;6.934;2023-11-21T06:21:27;9.00;99.90
5176;DHT22;2607;50.934;6.934;2023-11-21T06:23:53;9.00;99.90
5176;DHT22;2607;50.934;6.934;2023-11-21T06:26:18;9.00;99.90
5176;DHT22;2607;50.934;6.934;2023-11-21T06:28:44;9.00;99.90
5176;DHT22;2607;50.934;6.934;2023-11-21T06:31:10;9.00;99.90
5176;DHT22;2607;50.934;6.934;2023-11-21T06:33:36;9.00;99.90
5176;DHT22;2607;50.934;6.934;2023-11-21T06:36:02;9.00;99.90
5176;DHT22;2607;50.934;6.934;2023-11-21T06:38:28;9.00;99.90
5176;DHT22;2607;50.934;6.934;2023-11-21T06:40:55;9.00;99.90
5176;DHT22;2607;50.934;6.934;2023-11-21T06:43:21;9.00;99.90
5176;DHT22;2607;50.934;6.934;2023-11-21T06:45:47;8.90;99.90
5176;DHT22;2607;50.934;6.934;2023-11-21T06:48:13;8.90;99.90
5176;DHT22;2607;50.934;6.934;2023-11-21T06:50:38;8.90;99.90
5176;DHT22;2607;50.934;6.934;2023-11-21T06:53:04;8.90;99.90
5176;DHT22;2607;50.934;6.934;2023-11-21T06:55:32;8.90;99.90
5176;DHT22;2607;50.934;6.934;2023-11-21T06:57:57;8.90;99.90
5176;DHT22;2607;50.934;6.934;2023-11-21T07:00:23;8.90;99.90
5176;DHT22;2607;50.934;6.934;2023-11-21T07:02:49;8.90;99.90
5176;DHT22;2607;50.934;6.934;2023-11-21T07:05:14;8.90;99.90
5176;DHT22;2607;50.934;6.934;2023-11-21T07:07:40;8.90;99.90
5176;DHT22;2607;50.934;6.934;2023-11-21T07:10:06;8.90;99.90
5176;DHT22;2607;50.934;6.934;2023-11-21T07:12:33;8.90;99.90
5176;DHT22;2607;50.934;6.934;2023-11-21T07:14:59;8.90;99.90
5176;DHT22;2607;50.934;6.934;2023-11-21T07:17:25;9.00;99.90
5176;DHT22;2607;50.934;6.934;2023-11-21T07:19:50;9.00;99.90
5176;DHT22;2607;50.934;6.934;2023-11-21T07:22:16;9.00;99.90
5176;DHT22;2607;50.934;6.934;2023-11-21T07:24:49;9.00;99.90
5176;DHT22;2607;50.934;6.934;2023-11-21T07:27:16;9.00;99.90
5176;DHT22;2607;50.934;6.934;2023-11-21T07:29:42;9.00;99.90
5176;DHT22;2607;50.934;6.934;2023-11-21T07:32:07;9.00;99.90
5176;DHT22;2607;50.934;6.934;2023-11-21T07:34:35;9.10;99.90
5176;DHT22;2607;50.934;6.934;2023-11-21T07:37:01;9.10;99.90
5176;DHT22;2607;50.934;6.934;2023-11-21T07:39:27;9.10;99.90
5176;DHT22;2607;50.934;6.934;2023-11-21T07:41:52;9.10;99.90
5176;DHT22;2607;50.934;6.934;2023-11-21T07:44:18;9.10;99.90
5176;DHT22;2607;50.934;6.934;2023-11-21T07:46:45;9.10;99.90
5176;DHT22;2607;50.934;6.934;2023-11-21T07:49:11;9.20;99.90
5176;DHT22;2607;50.934;6.934;2023-11-21T07:51:36;9.20;99.90
5176;DHT22;2607;50.934;6.934;2023-11-21T07:54:02;9.20;99.90
5176;DHT22;2607;50.934;6.934;2023-11-21T07:56:27;9.20;99.90
5176;DHT22;2607;50.934;6.934;2023-11-21T07:58:53;9.20;99.90
5176;DHT22;2607;50.934;6.934;2023-11-21T08:01:19;9.20;99.90
5176;DHT22;2607;50.934;6.934;2023-11-21T08:03:45;9.20;99.90
5176;DHT22;2607;50.934;6.934;2023-11-21T08:06:10;9.20;99.90
5176;DHT22;2607;50.934;6.934;2023-11-21T08:08:36;9.30;99.90
5176;DHT22;2607;50.934;6.934;2023-11-21T08:11:01;9.30;99.90
5176;DHT22;2607;50.934;6.934;2023-11-21T08:13:29;9.30;99.90
5176;DHT22;2607;50.934;6.934;2023-11-21T08:15:56;9.30;99.90
5176;DHT22;2607;50.934;6.934;2023-11-21T08:18:26;9.30;99.90
5176;DHT22;2607;50.934;6.934;2023-11-21T08:20:52;9.30;99.90
5176;DHT22;2607;50.934;6.934;2023-11-21T08:23:20;9.30;99.90
5176;DHT22;2607;50.934;6.934;2023-11-21T08:25:50;9.30;99.90
5176;DHT22;2607;50.934;6.934;2023-11-21T08:28:16;9.40;99.90
5176;DHT22;2607;50.934;6.934;2023-11-21T08:30:42;9.40;99.90
5176;DHT22;2607;50.934;6.934;2023-11-21T08:33:08;9.40;99.90
5176;DHT22;2607;50.934;6.934;2023-11-21T08:35:34;9.40;99.90
5176;DHT22;2607;50.934;6.934;2023-11-21T08:38:00;9.40;99.90
5176;DHT22;2607;50.934;6.934;2023-11-21T08:40:26;9.50;99.90
5176;DHT22;2607;50.934;6.934;2023-11-21T08:42:52;9.50;99.90
5176;DHT22;2607;50.934;6.934;2023-11-21T08:45:18;9.50;99.90
5176;DHT22;2607;50.934;6.934;2023-11-21T08:47:44;9.50;99.90
5176;DHT22;2607;50.934;6.934;2023-11-21T08:50:11;9.50;99.90
5176;DHT22;2607;50.934;6.934;2023-11-21T08:52:38;9.50;99.90
5176;DHT22;2607;50.934;6.934;2023-11-21T08:55:04;9.50;99.90
5176;DHT22;2607;50.934;6.934;2023-11-21T08:57:36;9.50;99.90
5176;DHT22;2607;50.934;6.934;2023-11-21T09:00:03;9.50;99.90
5176;DHT22;2607;50.934;6.934;2023-11-21T09:02:32;9.50;99.90
5176;DHT22;2607;50.934;6.934;2023-11-21T09:04:59;9.50;99.90
5176;DHT22;2607;50.934;6.934;2023-11-21T09:07:28;9.50;99.90
5176;DHT22;2607;50.934;6.934;2023-11-21T09:09:54;9.50;99.90
5176;DHT22;2607;50.934;6.934;2023-11-21T09:12:20;9.50;99.90
5176;DHT22;2607;50.934;6.934;2023-11-21T09:14:47;9.50;99.90
5176;DHT22;2607;50.934;6.934;2023-11-21T09:17:13;9.50;99.90
5176;DHT22;2607;50.934;6.934;2023-11-21T09:19:40;9.60;99.90
5176;DHT22;2607;50.934;6.934;2023-11-21T09:22:06;9.60;99.90
5176;DHT22;2607;50.934;6.934;2023-11-21T09:24:32;9.60;99.90
5176;DHT22;2607;50.934;6.934;2023-11-21T09:26:58;9.60;99.90
5176;DHT22;2607;50.934;6.934;2023-11-21T09:29:25;9.70;99.90
5176;DHT22;2607;50.934;6.934;2023-11-21T09:31:51;9.70;99.90
5176;DHT22;2607;50.934;6.934;2023-11-21T09:34:17;9.70;99.90
5176;DHT22;2607;50.934;6.934;2023-11-21T09:36:46;9.70;99.90
5176;DHT22;2607;50.934;6.934;2023-11-21T09:39:12;9.80;99.90
5176;DHT22;2607;50.934;6.934;2023-11-21T09:41:52;9.80;99.90
5176;DHT22;2607;50.934;6.934;2023-11-21T09:44:59;9.80;99.90
5176;DHT22;2607;50.934;6.934;2023-11-21T09:47:29;9.80;99.90
5176;DHT22;2607;50.934;6.934;2023-11-21T09:49:54;9.80;99.90
5176;DHT22;2607;50.934;6.934;2023-11-21T09:52:26;9.80;99.90
5176;DHT22;2607;50.934;6.934;2023-11-21T09:54:53;9.80;99.90
5176;DHT22;2607;50.934;6.934;2023-11-21T09:57:20;9.80;99.90
5176;DHT22;2607;50.934;6.934;2023-11-21T09:59:47;9.80;99.90
5176;DHT22;2607;50.934;6.934;2023-11-21T10:02:17;9.80;99.90
5176;DHT22;2607;50.934;6.934;2023-11-21T10:04:44;9.80;99.90
5176;DHT22;2607;50.934;6.934;2023-11-21T10:07:12;9.80;99.90
5176;DHT22;2607;50.934;6.934;2023-11-21T10:09:40;9.80;99.90
5176;DHT22;2607;50.934;6.934;2023-11-21T10:12:07;9.80;99.90
5176;DHT22;2607;50.934;6.934;2023-11-21T10:14:36;9.80;99.90
5176;DHT22;2607;50.934;6.934;2023-11-21T10:17:02;9.80;99.90
5176;DHT22;2607;50.934;6.934;2023-11-21T10:19:29;9.80;99.90
5176;DHT22;2607;50.934;6.934;2023-11-21T10:21:55;9.90;99.90
5176;DHT22;2607;50.934;6.934;2023-11-21T10:24:23;9.90;99.90
5176;DHT22;2607;50.934;6.934;2023-11-21T10:26:48;9.90;99.90
5176;DHT22;2607;50.934;6.934;2023-11-21T10:29:16;9.90;99.90
5176;DHT22;2607;50.934;6.934;2023-11-21T10:31:49;9.90;99.90
5176;DHT22;2607;50.934;6.934;2023-11-21T10:34:16;9.90;99.90
5176;DHT22;2607;50.934;6.934;2023-11-21T10:36:42;9.90;99.90
5176;DHT22;2607;50.934;6.934;2023-11-21T10:39:08;10.00;99.90
5176;DHT22;2607;50.934;6.934;2023-11-21T10:41:37;10.00;99.90
5176;DHT22;2607;50.934;6.934;2023-11-21T10:44:03;10.00;99.90
5176;DHT22;2607;50.934;6.934;2023-11-21T10:46:32;10.00;99.90
5176;DHT22;2607;50.934;6.934;2023-11-21T10:48:57;10.00;99.90
5176;DHT22;2607;50.934;6.934;2023-11-21T10:51:23;10.00;99.90
5176;DHT22;2607;50.934;6.934;2023-11-21T10:53:52;10.00;99.90
5176;DHT22;2607;50.934;6.934;2023-11-21T10:56:18;10.00;99.90
5176;DHT22;2607;50.934;6.934;2023-11-21T10:58:48;10.00;99.90
5176;DHT22;2607;50.934;6.934;2023-11-21T11:01:16;10.10;99.90
5176;DHT22;2607;50.934;6.934;2023-11-21T11:03:43;10.10;99.90
5176;DHT22;2607;50.934;6.934;2023-11-21T11:06:09;10.10;99.90
5176;DHT22;2607;50.934;6.934;2023-11-21T11:08:37;10.10;99.90
5176;DHT22;2607;50.934;6.934;2023-11-21T11:11:06;10.20;99.90
5176;DHT22;2607;50.934;6.934;2023-11-21T11:13:32;10.20;99.90
5176;DHT22;2607;50.934;6.934;2023-11-21T11:15:59;10.20;99.90
5176;DHT22;2607;50.934;6.934;2023-11-21T11:18:29;10.20;99.90
5176;DHT22;2607;50.934;6.934;2023-11-21T11:21:42;10.10;99.90
5176;DHT22;2607;50.934;6.934;2023-11-21T11:24:13;10.10;99.90
5176;DHT22;2607;50.934;6.934;2023-11-21T11:27:11;10.10;99.90
5176;DHT22;2607;50.934;6.934;2023-11-21T11:32:43;10.20;99.90
5176;DHT22;2607;50.934;6.934;2023-11-21T11:37:50;10.20;99.90
5176;DHT22;2607;50.934;6.934;2023-11-21T11:40:16;10.20;99.90
5176;DHT22;2607;50.934;6.934;2023-11-21T11:42:58;10.20;99.90
5176;DHT22;2607;50.934;6.934;2023-11-21T11:45:33;10.30;99.90
5176;DHT22;2607;50.934;6.934;2023-11-21T11:48:00;10.30;99.90
5176;DHT22;2607;50.934;6.934;2023-11-21T11:50:25;10.30;99.90
5176;DHT22;2607;50.934;6.934;2023-11-21T11:52:57;10.30;99.90
5176;DHT22;2607;50.934;6.934;2023-11-21T11:55:36;10.20;99.90
5176;DHT22;2607;50.934;6.934;2023-11-21T11:58:06;10.20;99.90
5176;DHT22;2607;50.934;6.934;2023-11-21T12:02:59;10.20;99.90
5176;DHT22;2607;50.934;6.934;2023-11-21T12:05:29;10.30;99.90
5176;DHT22;2607;50.934;6.934;2023-11-21T12:07:59;10.30;99.90
5176;DHT22;2607;50.934;6.934;2023-11-21T12:10:27;10.40;99.90
5176;DHT22;2607;50.934;6.934;2023-11-21T12:13:13;10.40;99.90
5176;DHT22;2607;50.934;6.934;2023-11-21T12:15:39;10.40;99.90
5176;DHT22;2607;50.934;6.934;2023-11-21T12:18:07;10.40;99.90
5176;DHT22;2607;50.934;6.934;2023-11-21T12:20:33;10.40;99.90
5176;DHT22;2607;50.934;6.934;2023-11-21T12:23:04;10.30;99.90
5176;DHT22;2607;50.934;6.934;2023-11-21T12:25:31;10.30;99.90
5176;DHT22;2607;50.934;6.934;2023-11-21T12:27:58;10.30;99.90
5176;DHT22;2607;50.934;6.934;2023-11-21T12:30:27;10.30;99.90
5176;DHT22;2607;50.934;6.934;2023-11-21T12:33:00;10.30;99.90
5176;DHT22;2607;50.934;6.934;2023-11-21T12:35:33;10.30;99.90
5176;DHT22;2607;50.934;6.934;2023-11-21T12:38:01;10.30;99.90
5176;DHT22;2607;50.934;6.934;2023-11-21T12:40:30;10.30;99.90
5176;DHT22;2607;50.934;6.934;2023-11-21T12:42:57;10.30;99.90
5176;DHT22;2607;50.934;6.934;2023-11-21T12:45:27;10.40;99.90
5176;DHT22;2607;50.934;6.934;2023-11-21T12:48:02;10.40;99.90
5176;DHT22;2607;50.934;6.934;2023-11-21T12:50:33;10.40;99.90
5176;DHT22;2607;50.934;6.934;2023-11-21T12:55:33;10.40;99.90
5176;DHT22;2607;50.934;6.934;2023-11-21T12:58:03;10.40;99.90
5176;DHT22;2607;50.934;6.934;2023-11-21T13:00:36;10.30;99.90
5176;DHT22;2607;50.934;6.934;2023-11-21T13:03:04;10.30;99.90
5176;DHT22;2607;50.934;6.934;2023-11-21T13:05:35;10.30;99.90
5176;DHT22;2607;50.934;6.934;2023-11-21T13:08:04;10.30;99.90
5176;DHT22;2607;50.934;6.934;2023-11-21T13:10:34;10.30;99.90
5176;DHT22;2607;50.934;6.934;2023-11-21T13:13:02;10.30;99.90
5176;DHT22;2607;50.934;6.934;2023-11-21T13:15:31;10.30;99.90
5176;DHT22;2607;50.934;6.934;2023-11-21T13:17:58;10.20;99.90
5176;DHT22;2607;50.934;6.934;2023-11-21T13:20:27;10.30;99.90
5176;DHT22;2607;50.934;6.934;2023-11-21T13:22:55;10.30;99.90
5176;DHT22;2607;50.934;6.934;2023-11-21T13:25:25;10.30;99.90
5176;DHT22;2607;50.934;6.934;2023-11-21T13:27:58;10.40;99.90
5176;DHT22;2607;50.934;6.934;2023-11-21T13:30:27;10.40;99.90
5176;DHT22;2607;50.934;6.934;2023-11-21T13:32:59;10.40;99.90
5176;DHT22;2607;50.934;6.934;2023-11-21T13:35:30;10.40;99.90
5176;DHT22;2607;50.934;6.934;2023-11-21T13:38:04;10.40;99.90
5176;DHT22;2607;50.934;6.934;2023-11-21T13:40:32;10.40;99.90
5176;DHT22;2607;50.934;6.934;2023-11-21T13:43:00;10.40;99.90
5176;DHT22;2607;50.934;6.934;2023-11-21T13:45:29;10.40;99.90
5176;DHT22;2607;50.934;6.934;2023-11-21T13:47:56;10.50;99.90
5176;DHT22;2607;50.934;6.934;2023-11-21T13:50:25;10.50;99.90
5176;DHT22;2607;50.934;6.934;2023-11-21T13:53:01;10.40;99.90
5176;DHT22;2607;50.934;6.934;2023-11-21T13:55:46;10.40;99.90
5176;DHT22;2607;50.934;6.934;2023-11-21T13:58:13;10.40;99.90
5176;DHT22;2607;50.934;6.934;2023-11-21T14:00:45;10.40;99.90
5176;DHT22;2607;50.934;6.934;2023-11-21T14:03:14;10.50;99.90
5176;DHT22;2607;50.934;6.934;2023-11-21T14:05:47;10.50;99.90
5176;DHT22;2607;50.934;6.934;2023-11-21T14:08:19;10.50;99.90
5176;DHT22;2607;50.934;6.934;2023-11-21T14:10:49;10.50;99.90
5176;DHT22;2607;50.934;6.934;2023-11-21T14:13:18;10.50;99.90
5176;DHT22;2607;50.934;6.934;2023-11-21T14:15:45;10.50;99.90
5176;DHT22;2607;50.934;6.934;2023-11-21T14:18:12;10.50;99.90
5176;DHT22;2607;50.934;6.934;2023-11-21T14:20:40;10.40;99.90
5176;DHT22;2607;50.934;6.934;2023-11-21T14:23:06;10.40;99.90
5176;DHT22;2607;50.934;6.934;2023-11-21T14:25:33;10.40;99.90
5176;DHT22;2607;50.934;6.934;2023-11-21T14:27:59;10.40;99.90
5176;DHT22;2607;50.934;6.934;2023-11-21T14:30:24;10.50;99.90
5176;DHT22;2607;50.934;6.934;2023-11-21T14:32:51;10.50;99.90
5176;DHT22;2607;50.934;6.934;2023-11-21T14:35:16;10.50;99.90
5176;DHT22;2607;50.934;6.934;2023-11-21T14:37:43;10.50;99.90
5176;DHT22;2607;50.934;6.934;2023-11-21T14:40:09;10.50;99.90
5176;DHT22;2607;50.934;6.934;2023-11-21T14:42:35;10.50;99.90
5176;DHT22;2607;50.934;6.934;2023-11-21T14:45:03;10.50;99.90
5176;DHT22;2607;50.934;6.934;2023-11-21T14:47:32;10.50;99.90
5176;DHT22;2607;50.934;6.934;2023-11-21T14:49:58;10.50;99.90
5176;DHT22;2607;50.934;6.934;2023-11-21T14:52:25;10.50;99.90
5176;DHT22;2607;50.934;6.934;2023-11-21T14:55:03;10.50;99.90
5176;DHT22;2607;50.934;6.934;2023-11-21T14:57:46;10.50;99.90
5176;DHT22;2607;50.934;6.934;2023-11-21T15:00:16;10.40;99.90
5176;DHT22;2607;50.934;6.934;2023-11-21T15:02:56;10.40;99.90
5176;DHT22;2607;50.934;6.934;2023-11-21T15:05:22;10.40;99.90
5176;DHT22;2607;50.934;6.934;2023-11-21T15:07:49;10.40;99.90
5176;DHT22;2607;50.934;6.934;2023-11-21T15:10:15;10.40;99.90
5176;DHT22;2607;50.934;6.934;2023-11-21T15:12:41;10.40;99.90
5176;DHT22;2607;50.934;6.934;2023-11-21T15:15:08;10.40;99.90
5176;DHT22;2607;50.934;6.934;2023-11-21T15:17:36;10.40;99.90
5176;DHT22;2607;50.934;6.934;2023-11-21T15:20:03;10.40;99.90
5176;DHT22;2607;50.934;6.934;2023-11-21T15:22:29;10.40;99.90
5176;DHT22;2607;50.934;6.934;2023-11-21T15:24:55;10.40;99.90
5176;DHT22;2607;50.934;6.934;2023-11-21T15:27:21;10.40;99.90
5176;DHT22;2607;50.934;6.934;2023-11-21T15:29:47;10.40;99.90
5176;DHT22;2607;50.934;6.934;2023-11-21T15:32:12;10.40;99.90
5176;DHT22;2607;50.934;6.934;2023-11-21T15:34:38;10.40;99.90
5176;DHT22;2607;50.934;6.934;2023-11-21T15:37:06;10.30;99.90
5176;DHT22;2607;50.934;6.934;2023-11-21T15:39:35;10.30;99.90
5176;DHT22;2607;50.934;6.934;2023-11-21T15:42:00;10.30;99.90
5176;DHT22;2607;50.934;6.934;2023-11-21T15:44:26;10.30;99.90
5176;DHT22;2607;50.934;6.934;2023-11-21T15:46:55;10.30;99.90
5176;DHT22;2607;50.934;6.934;2023-11-21T15:49:21;10.30;99.90
5176;DHT22;2607;50.934;6.934;2023-11-21T15:51:48;10.40;99.90
5176;DHT22;2607;50.934;6.934;2023-11-21T15:54:21;10.40;99.90
5176;DHT22;2607;50.934;6.934;2023-11-21T15:56:48;10.40;99.90
5176;DHT22;2607;50.934;6.934;2023-11-21T15:59:14;10.30;99.90
5176;DHT22;2607;50.934;6.934;2023-11-21T16:01:39;10.30;99.90
5176;DHT22;2607;50.934;6.934;2023-11-21T16:04:14;10.30;99.90
5176;DHT22;2607;50.934;6.934;2023-11-21T16:06:46;10.30;99.90
5176;DHT22;2607;50.934;6.934;2023-11-21T16:09:13;10.30;99.90
5176;DHT22;2607;50.934;6.934;2023-11-21T16:11:52;10.30;99.90
5176;DHT22;2607;50.934;6.934;2023-11-21T16:14:22;10.30;99.90
5176;DHT22;2607;50.934;6.934;2023-11-21T16:16:52;10.30;99.90
5176;DHT22;2607;50.934;6.934;2023-11-21T16:19:18;10.20;99.90
5176;DHT22;2607;50.934;6.934;2023-11-21T16:21:47;10.20;99.90
5176;DHT22;2607;50.934;6.934;2023-11-21T16:24:13;10.20;99.90